Time;durP1;ratioP1;P1;durP2;ratioP2;P2;SDS_P1;SDS_P2;PMS_P1;PMS_P2;Temp;Humidity;BMP_temperature;BMP_pressure;BME280_temperature;BME280_humidity;BME280_pressure;Samples;Min_cycle;Max_cycle;Signal;HPM_P1;HPM_P2
2021/09/30 00:01:17;;;;;;;0.77;0.75;;;10.50;95.00;;;;;;5093170;28;20023;-77
2021/09/30 00:03:42;;;;;;;0.70;0.60;;;10.40;95.00;;;;;;5092760;28;20503;-75
2021/09/30 00:06:08;;;;;;;1.05;0.80;;;10.40;95.00;;;;;;5092613;28;20048;-76
2021/09/30 00:08:33;;;;;;;0.75;0.75;;;10.40;95.00;;;;;;5093081;28;20388;-76
2021/09/30 00:11:05;;;;;;;0.70;0.70;;;10.40;95.00;;;;;;5092678;28;20040;-77
2021/09/30 00:16:25;;;;;;;1.08;0.98;;;10.40;95.00;;;;;;5092877;28;20358;-76
2021/09/30 00:32:55;;;;;;;1.67;0.80;;;10.40;95.10;;;;;;5094504;28;20085;-75
2021/09/30 00:46:47;;;;;;;0.82;0.82;;;10.30;95.00;;;;;;5073966;28;20039;-76
2021/09/30 00:49:28;;;;;;;0.73;0.73;;;10.30;95.10;;;;;;5073636;28;20044;-76
2021/09/30 00:54:37;;;;;;;0.90;0.73;;;10.30;95.00;;;;;;5073769;28;20086;-76
2021/09/30 01:18:32;;;;;;;0.98;0.90;;;10.30;95.00;;;;;;5073262;28;20048;-75
2021/09/30 02:22:27;;;;;;;1.63;1.35;;;10.00;94.80;;;;;;5094438;28;20416;-75
2021/09/30 02:24:56;;;;;;;1.20;1.10;;;10.00;94.80;;;;;;5093065;28;20391;-76
2021/09/30 03:00:14;;;;;;;2.10;1.90;;;9.60;94.90;;;;;;5093644;28;20047;-76
2021/09/30 03:02:42;;;;;;;2.00;1.33;;;9.60;94.90;;;;;;5093535;28;20178;-75
2021/09/30 03:05:10;;;;;;;2.28;1.65;;;9.60;94.90;;;;;;5093712;28;20020;-78
2021/09/30 03:07:37;;;;;;;2.05;1.55;;;9.60;94.90;;;;;;5093652;28;20031;-76
2021/09/30 03:10:03;;;;;;;1.98;1.25;;;9.60;94.90;;;;;;5093481;28;20379;-76
2021/09/30 03:12:30;;;;;;;2.08;1.83;;;9.60;94.90;;;;;;5093705;28;20024;-76
2021/09/30 03:15:16;;;;;;;1.67;1.42;;;9.60;94.90;;;;;;5093274;28;20048;-76
2021/09/30 03:17:50;;;;;;;1.75;1.50;;;9.50;94.80;;;;;;5093615;28;20050;-76
2021/09/30 03:23:07;;;;;;;2.47;1.55;;;9.50;94.80;;;;;;5093630;28;20043;-76
2021/09/30 03:25:33;;;;;;;2.00;1.67;;;9.50;94.80;;;;;;5093390;28;20091;-76
2021/09/30 03:27:59;;;;;;;3.70;1.63;;;9.50;94.80;;;;;;5093323;28;20113;-76
2021/09/30 03:30:27;;;;;;;2.35;1.67;;;9.50;94.80;;;;;;5092975;28;20457;-76
2021/09/30 03:32:54;;;;;;;3.00;1.58;;;9.50;94.70;;;;;;5093538;28;20020;-76
2021/09/30 03:35:22;;;;;;;1.88;1.30;;;9.50;94.70;;;;;;5093219;28;20016;-75
2021/09/30 03:37:47;;;;;;;2.78;1.30;;;9.50;94.80;;;;;;5093218;28;20082;-75
2021/09/30 03:40:13;;;;;;;1.42;0.98;;;9.50;94.70;;;;;;5093605;28;20028;-77
2021/09/30 03:42:38;;;;;;;1.35;1.05;;;9.50;94.70;;;;;;5093246;28;20086;-76
2021/09/30 03:45:05;;;;;;;2.53;1.38;;;9.40;94.70;;;;;;5108372;28;20414;-77
2021/09/30 03:47:30;;;;;;;1.30;1.20;;;9.50;94.70;;;;;;5093299;28;20461;-76
2021/09/30 03:49:56;;;;;;;1.95;1.58;;;9.40;94.70;;;;;;5093226;28;20020;-75
2021/09/30 03:52:31;;;;;;;2.25;1.52;;;9.40;94.70;;;;;;5093250;28;20043;-75
2021/09/30 03:55:19;;;;;;;1.15;1.10;;;9.40;94.80;;;;;;5093301;28;20020;-76
2021/09/30 04:00:29;;;;;;;2.17;1.85;;;9.40;94.80;;;;;;5093160;28;20082;-75
2021/09/30 04:02:55;;;;;;;1.40;1.10;;;9.40;94.80;;;;;;5093034;28;20071;-75
2021/09/30 04:05:20;;;;;;;1.35;1.25;;;9.40;94.80;;;;;;5093064;28;20027;-76
2021/09/30 04:07:46;;;;;;;1.35;1.25;;;9.40;94.80;;;;;;5094980;28;20062;-75
2021/09/30 04:10:11;;;;;;;1.38;1.13;;;9.40;94.80;;;;;;5096853;28;20016;-76
2021/09/30 04:12:37;;;;;;;1.00;1.00;;;9.40;94.80;;;;;;5096491;28;20032;-75
2021/09/30 04:15:03;;;;;;;1.42;1.10;;;9.40;94.90;;;;;;5096839;28;20020;-76
2021/09/30 04:17:28;;;;;;;2.33;1.27;;;9.40;94.90;;;;;;5096949;28;20027;-76
2021/09/30 04:19:54;;;;;;;1.75;1.40;;;9.30;94.80;;;;;;5096928;28;20388;-75
2021/09/30 04:22:19;;;;;;;1.77;1.30;;;9.40;94.90;;;;;;5096784;28;20474;-75
2021/09/30 04:24:47;;;;;;;1.58;1.40;;;9.40;95.10;;;;;;5096686;28;20024;-76
2021/09/30 04:27:13;;;;;;;1.25;1.10;;;9.40;94.80;;;;;;5096198;28;20028;-76
2021/09/30 04:29:38;;;;;;;1.30;1.00;;;9.40;94.90;;;;;;5112703;28;20024;-76
2021/09/30 04:32:04;;;;;;;1.95;1.27;;;9.30;94.90;;;;;;5112345;28;20032;-75
2021/09/30 04:34:30;;;;;;;1.20;1.10;;;9.40;94.90;;;;;;5096672;28;20024;-76
2021/09/30 04:36:55;;;;;;;1.98;1.50;;;9.40;94.90;;;;;;5096487;28;20028;-76
2021/09/30 04:39:21;;;;;;;2.10;1.58;;;9.30;94.80;;;;;;5096383;28;20031;-75
2021/09/30 04:41:47;;;;;;;1.40;1.30;;;9.30;94.80;;;;;;5095989;28;20032;-75
2021/09/30 04:44:13;;;;;;;2.60;1.77;;;9.30;94.90;;;;;;5096225;28;20507;-76
2021/09/30 04:46:38;;;;;;;1.05;1.02;;;9.30;94.90;;;;;;5096222;28;20388;-74
2021/09/30 04:49:04;;;;;;;1.20;1.10;;;9.30;94.90;;;;;;5096231;28;20031;-76
2021/09/30 04:51:29;;;;;;;2.03;1.40;;;9.30;94.90;;;;;;5096219;28;20484;-76
2021/09/30 04:53:55;;;;;;;2.20;1.70;;;9.30;94.90;;;;;;5096072;28;20047;-77
2021/09/30 04:56:21;;;;;;;1.65;1.17;;;9.20;94.90;;;;;;5077484;28;20532;-76
2021/09/30 04:58:46;;;;;;;2.10;1.48;;;9.30;94.90;;;;;;5096206;28;20423;-76
2021/09/30 05:01:12;;;;;;;2.13;1.50;;;9.30;94.80;;;;;;5096063;28;20020;-76
2021/09/30 05:03:38;;;;;;;2.72;1.52;;;9.20;94.80;;;;;;5095936;28;20028;-75
2021/09/30 05:06:03;;;;;;;1.60;1.30;;;9.20;94.90;;;;;;5095927;28;20468;-75
2021/09/30 05:08:33;;;;;;;1.63;1.40;;;9.20;94.90;;;;;;5096042;28;20020;-76
2021/09/30 05:10:59;;;;;;;2.95;1.30;;;9.20;94.90;;;;;;5077126;28;20040;-77
2021/09/30 05:13:35;;;;;;;2.05;1.50;;;9.20;94.90;;;;;;5095865;28;20389;-74
2021/09/30 05:16:01;;;;;;;2.17;1.80;;;9.20;95.00;;;;;;5095665;28;20069;-73
2021/09/30 05:18:27;;;;;;;2.95;2.50;;;9.20;95.20;;;;;;5094786;28;20032;-75
2021/09/30 05:20:52;;;;;;;4.22;1.83;;;9.20;94.90;;;;;;5095487;28;20016;-75
2021/09/30 05:23:18;;;;;;;2.13;1.67;;;9.20;94.90;;;;;;5077387;28;20028;-75
2021/09/30 05:25:43;;;;;;;3.08;1.95;;;9.20;95.00;;;;;;5095213;28;20027;-75
2021/09/30 05:28:09;;;;;;;2.75;1.40;;;9.20;95.00;;;;;;5077225;28;20024;-75
2021/09/30 05:30:34;;;;;;;2.35;1.50;;;9.20;94.90;;;;;;5095387;28;20021;-75
2021/09/30 05:33:00;;;;;;;2.17;1.42;;;9.20;94.90;;;;;;5095487;28;20024;-76
2021/09/30 05:35:27;;;;;;;2.25;1.50;;;9.20;94.90;;;;;;5095405;28;20016;-75
2021/09/30 05:37:53;;;;;;;2.20;1.60;;;9.10;94.90;;;;;;5095268;28;20089;-75
2021/09/30 05:40:20;;;;;;;2.33;1.60;;;9.20;94.90;;;;;;5094723;28;20024;-75
2021/09/30 05:42:46;;;;;;;2.53;2.22;;;9.20;94.90;;;;;;5077067;28;20070;-75
2021/09/30 05:45:13;;;;;;;2.08;1.60;;;9.20;94.80;;;;;;5077039;28;20066;-76
2021/09/30 05:47:40;;;;;;;4.00;2.30;;;9.10;94.80;;;;;;5095301;28;20099;-75
2021/09/30 05:50:06;;;;;;;2.05;1.60;;;9.20;94.90;;;;;;5095165;28;20020;-75
2021/09/30 05:52:32;;;;;;;3.20;2.17;;;9.10;94.90;;;;;;5095060;28;20476;-75
2021/09/30 05:54:58;;;;;;;2.75;1.70;;;9.10;94.80;;;;;;5094274;28;20052;-75
2021/09/30 05:57:23;;;;;;;2.63;1.67;;;9.10;94.80;;;;;;5094859;28;20059;-76
2021/09/30 05:59:50;;;;;;;1.80;1.30;;;9.10;94.80;;;;;;5094903;28;20066;-76
2021/09/30 06:03:51;;;;;;;1.67;1.58;;;9.10;94.80;;;;;;5094987;28;20024;-75
2021/09/30 06:10:33;;;;;;;2.20;1.58;;;9.10;94.80;;;;;;5094425;28;20074;-75
2021/09/30 06:13:02;;;;;;;3.13;1.98;;;9.10;94.90;;;;;;5094706;28;20103;-77
2021/09/30 06:15:31;;;;;;;1.77;1.65;;;9.10;94.80;;;;;;5094530;28;20020;-78
2021/09/30 06:17:59;;;;;;;3.67;2.03;;;9.10;94.80;;;;;;5094424;28;20384;-76
2021/09/30 06:20:25;;;;;;;2.35;1.63;;;9.10;94.90;;;;;;5076246;28;20023;-76
2021/09/30 06:22:50;;;;;;;3.10;2.10;;;9.10;94.90;;;;;;5093794;28;20032;-76
2021/09/30 06:25:16;;;;;;;2.28;1.77;;;9.20;94.80;;;;;;5094203;28;20483;-77
2021/09/30 06:27:42;;;;;;;2.92;1.95;;;9.20;94.90;;;;;;5094277;28;20020;-77
2021/09/30 06:30:08;;;;;;;1.98;1.30;;;9.20;94.80;;;;;;5075787;28;20430;-76
2021/09/30 06:32:34;;;;;;;1.80;1.50;;;9.20;94.80;;;;;;5094253;28;20377;-76
2021/09/30 06:34:59;;;;;;;2.60;1.92;;;9.20;94.80;;;;;;5094054;28;20489;-75
2021/09/30 06:37:26;;;;;;;2.55;1.50;;;9.30;94.80;;;;;;5075283;28;20507;-74
2021/09/30 06:39:51;;;;;;;2.78;1.80;;;9.30;94.80;;;;;;5094050;28;20012;-73
2021/09/30 06:42:17;;;;;;;2.10;1.73;;;9.30;94.80;;;;;;5093961;28;20043;-75
2021/09/30 06:44:42;;;;;;;2.25;1.83;;;9.40;94.80;;;;;;5093990;28;20031;-74
2021/09/30 06:47:08;;;;;;;2.55;2.13;;;9.40;94.80;;;;;;5075871;28;20026;-75
2021/09/30 06:49:33;;;;;;;2.70;1.63;;;9.40;94.80;;;;;;5093838;28;20473;-74
2021/09/30 06:51:59;;;;;;;4.03;2.13;;;9.50;94.80;;;;;;5109111;28;20481;-74
2021/09/30 06:54:24;;;;;;;1.92;1.50;;;9.50;94.80;;;;;;5075623;28;20031;-74
2021/09/30 06:56:51;;;;;;;2.92;1.60;;;9.60;94.90;;;;;;5093814;28;20016;-74
2021/09/30 06:59:21;;;;;;;3.05;2.00;;;9.60;94.90;;;;;;5093879;28;20024;-74
2021/09/30 07:01:47;;;;;;;5.75;2.00;;;9.70;94.90;;;;;;5093978;28;20012;-75
2021/09/30 07:04:13;;;;;;;3.05;2.13;;;9.70;94.90;;;;;;5075496;28;20054;-73
2021/09/30 07:06:38;;;;;;;1.95;1.63;;;9.70;94.90;;;;;;5075005;28;20464;-74
2021/09/30 07:09:04;;;;;;;1.95;1.75;;;9.80;94.90;;;;;;5093597;28;20376;-75
2021/09/30 07:11:30;;;;;;;2.72;1.90;;;9.80;94.90;;;;;;5075159;28;20052;-76
2021/09/30 07:13:56;;;;;;;3.58;2.22;;;9.90;94.90;;;;;;5093479;28;20023;-73
2021/09/30 07:16:22;;;;;;;3.40;2.35;;;10.00;94.90;;;;;;5093392;28;20027;-76
2021/09/30 07:18:47;;;;;;;3.25;1.85;;;10.00;94.90;;;;;;5075266;28;20028;-75
2021/09/30 07:21:13;;;;;;;4.53;2.47;;;10.00;94.90;;;;;;5093133;28;20039;-76
2021/09/30 07:23:38;;;;;;;3.40;2.13;;;10.10;94.90;;;;;;5075222;28;20085;-75
2021/09/30 07:26:07;;;;;;;3.53;2.20;;;10.10;94.90;;;;;;5093452;28;20020;-76
2021/09/30 07:28:33;;;;;;;3.03;1.95;;;10.20;94.90;;;;;;5093380;28;20020;-75
2021/09/30 07:30:59;;;;;;;3.70;2.70;;;10.20;94.90;;;;;;5093313;28;20031;-75
2021/09/30 07:33:24;;;;;;;3.10;1.90;;;10.30;94.90;;;;;;5093428;28;20024;-75
2021/09/30 07:35:51;;;;;;;2.75;1.52;;;10.30;94.90;;;;;;5092975;28;20388;-75
2021/09/30 07:38:17;;;;;;;2.17;1.42;;;10.40;95.00;;;;;;5093267;28;20107;-75
2021/09/30 07:40:42;;;;;;;2.28;1.77;;;10.40;94.90;;;;;;5093243;28;20095;-74
2021/09/30 07:43:08;;;;;;;3.65;2.10;;;10.50;94.90;;;;;;5095904;28;20040;-76
2021/09/30 07:45:35;;;;;;;4.07;2.40;;;10.50;94.90;;;;;;5097277;28;20020;-74
2021/09/30 07:48:00;;;;;;;4.38;2.40;;;10.60;94.90;;;;;;5079319;28;20119;-75
2021/09/30 07:50:26;;;;;;;3.88;2.70;;;10.60;94.90;;;;;;5096860;28;20100;-74
2021/09/30 07:52:51;;;;;;;2.60;2.03;;;10.70;94.90;;;;;;5097385;28;20106;-75
2021/09/30 07:55:17;;;;;;;2.90;1.75;;;10.70;94.90;;;;;;5097087;28;20464;-74
2021/09/30 07:57:43;;;;;;;2.15;1.67;;;10.80;94.90;;;;;;5097205;28;20050;-74
2021/09/30 08:00:09;;;;;;;2.50;1.85;;;10.80;94.90;;;;;;5097208;28;20013;-75
2021/09/30 08:02:35;;;;;;;2.20;1.75;;;10.90;94.90;;;;;;5097129;28;20096;-75
2021/09/30 08:05:00;;;;;;;1.90;1.70;;;10.90;94.90;;;;;;5096512;28;20391;-76
2021/09/30 08:07:26;;;;;;;2.72;2.00;;;11.00;94.90;;;;;;5078987;28;20020;-76
2021/09/30 08:09:51;;;;;;;3.70;2.50;;;11.10;94.90;;;;;;5078809;28;20036;-75
2021/09/30 08:12:17;;;;;;;4.22;2.45;;;11.20;94.90;;;;;;5096596;28;20043;-74
2021/09/30 08:14:42;;;;;;;4.93;2.72;;;11.30;94.90;;;;;;5096832;28;20526;-74
2021/09/30 08:17:08;;;;;;;2.90;2.13;;;11.30;94.80;;;;;;5096866;28;20024;-74
2021/09/30 08:19:34;;;;;;;3.47;2.13;;;11.40;94.90;;;;;;5096352;28;20020;-75
2021/09/30 08:21:59;;;;;;;3.15;1.70;;;11.40;94.90;;;;;;5096717;28;20451;-76
2021/09/30 08:24:25;;;;;;;2.60;1.80;;;11.50;94.90;;;;;;5096501;28;20028;-76
2021/09/30 08:26:50;;;;;;;3.65;2.10;;;11.50;94.90;;;;;;5096642;28;20051;-75
2021/09/30 08:29:18;;;;;;;6.60;2.22;;;11.60;94.80;;;;;;5096781;28;20085;-77
2021/09/30 08:31:44;;;;;;;3.35;2.30;;;11.70;94.90;;;;;;5078398;28;20016;-76
2021/09/30 08:34:10;;;;;;;3.83;2.33;;;11.80;94.80;;;;;;5095957;28;20024;-76
2021/09/30 08:36:36;;;;;;;3.22;2.13;;;11.90;94.90;;;;;;5096433;28;20032;-75
2021/09/30 08:39:06;;;;;;;2.67;1.95;;;11.90;94.90;;;;;;5096327;28;20020;-76
2021/09/30 08:41:32;;;;;;;2.83;1.73;;;12.10;94.90;;;;;;5096336;28;20488;-76
2021/09/30 08:43:57;;;;;;;2.35;1.83;;;12.20;94.90;;;;;;5096116;28;20067;-75
2021/09/30 08:46:23;;;;;;;3.05;1.60;;;12.30;94.90;;;;;;5096212;28;20024;-75
2021/09/30 08:48:49;;;;;;;3.47;2.17;;;12.40;94.80;;;;;;5096051;28;20095;-75
2021/09/30 08:51:16;;;;;;;2.00;1.80;;;12.40;94.90;;;;;;5078036;28;20032;-73
2021/09/30 08:53:42;;;;;;;1.65;1.50;;;12.50;94.90;;;;;;5096007;28;20426;-74
2021/09/30 08:56:08;;;;;;;1.67;1.35;;;12.60;94.90;;;;;;5096239;28;20020;-74
2021/09/30 08:58:35;;;;;;;2.25;1.67;;;12.70;94.80;;;;;;5077922;28;20024;-74
2021/09/30 09:01:02;;;;;;;2.13;1.52;;;12.70;94.80;;;;;;5096145;28;20082;-74
2021/09/30 09:03:47;;;;;;;3.20;1.42;;;12.70;94.80;;;;;;5095391;28;20035;-76
2021/09/30 09:06:30;;;;;;;2.42;1.20;;;12.70;94.80;;;;;;5077689;28;20445;-75
2021/09/30 09:09:22;;;;;;;2.08;1.50;;;12.80;94.80;;;;;;5095733;28;20480;-75
2021/09/30 09:11:49;;;;;;;1.92;1.70;;;12.80;94.80;;;;;;5095777;28;20131;-76
2021/09/30 09:14:26;;;;;;;1.67;1.45;;;12.90;94.80;;;;;;5095779;28;20024;-75
2021/09/30 09:17:13;;;;;;;1.77;1.65;;;13.00;94.80;;;;;;5095182;28;20108;-73
2021/09/30 09:19:41;;;;;;;2.85;1.98;;;13.10;94.70;;;;;;5095692;28;20016;-74
2021/09/30 09:22:12;;;;;;;2.45;1.80;;;13.10;94.80;;;;;;5095363;28;20047;-74
2021/09/30 09:25:04;;;;;;;2.38;1.63;;;13.20;94.80;;;;;;5077523;28;20035;-76
2021/09/30 09:28:02;;;;;;;1.92;1.30;;;13.30;94.90;;;;;;5077360;28;20475;-75
2021/09/30 09:30:42;;;;;;;3.47;1.73;;;13.40;94.80;;;;;;5033905;28;20044;-76
2021/09/30 09:33:21;;;;;;;2.25;1.70;;;13.50;94.70;;;;;;5095066;28;20054;-74
2021/09/30 09:36:04;;;;;;;2.90;1.70;;;13.50;94.80;;;;;;5095399;28;20028;-73
2021/09/30 09:38:43;;;;;;;1.73;1.40;;;13.60;94.80;;;;;;5095525;28;20055;-74
2021/09/30 09:41:10;;;;;;;;;;;13.70;94.80;;;;;;5077461;28;20357;-75
2021/09/30 09:43:41;;;;;;;2.15;1.52;;;13.80;94.80;;;;;;5094972;28;19998;-74
2021/09/30 09:46:08;;;;;;;2.40;1.92;;;13.90;94.70;;;;;;5095019;28;20017;-76
2021/09/30 09:48:35;;;;;;;1.48;1.38;;;13.90;94.60;;;;;;5095033;28;20486;-74
2021/09/30 09:51:12;;;;;;;1.65;1.38;;;13.90;94.60;;;;;;5095065;28;20020;-76
2021/09/30 09:53:38;;;;;;;1.88;1.38;;;13.90;94.70;;;;;;5094968;28;20024;-73
2021/09/30 09:56:26;;;;;;;1.55;1.27;;;13.90;94.70;;;;;;5076691;28;20468;-74
2021/09/30 09:58:59;;;;;;;2.22;1.23;;;14.00;94.70;;;;;;5076777;28;20027;-74
2021/09/30 10:01:28;;;;;;;6.22;1.83;;;14.00;94.60;;;;;;5094422;28;20024;-74
2021/09/30 10:03:59;;;;;;;1.40;1.20;;;14.00;94.60;;;;;;5094818;28;20028;-74
2021/09/30 10:06:26;;;;;;;1.60;1.40;;;14.00;94.60;;;;;;5094429;28;20074;-73
2021/09/30 10:08:52;;;;;;;1.83;1.25;;;14.00;94.60;;;;;;5094727;28;20062;-73
2021/09/30 10:11:17;;;;;;;1.75;1.65;;;14.10;94.60;;;;;;5094407;28;20051;-73
2021/09/30 10:13:43;;;;;;;2.67;1.15;;;14.10;94.50;;;;;;5094668;28;20024;-73
2021/09/30 10:16:09;;;;;;;1.95;1.45;;;14.20;94.60;;;;;;5093917;28;20024;-74
2021/09/30 10:18:35;;;;;;;2.28;2.03;;;14.20;94.60;;;;;;5094669;28;20054;-74
2021/09/30 10:21:01;;;;;;;1.92;1.15;;;14.30;94.60;;;;;;5094509;28;20017;-73
2021/09/30 10:23:35;;;;;;;1.13;0.93;;;14.40;94.50;;;;;;5076366;28;20032;-74
2021/09/30 10:26:30;;;;;;;1.90;1.20;;;14.50;94.40;;;;;;5094199;28;20020;-75
2021/09/30 10:28:56;;;;;;;2.40;1.52;;;14.60;94.40;;;;;;5076359;28;20081;-75
2021/09/30 10:31:30;;;;;;;1.77;1.05;;;14.60;94.30;;;;;;5094348;28;20411;-75
2021/09/30 10:33:57;;;;;;;1.42;1.23;;;14.60;94.30;;;;;;5094160;28;20023;-73
2021/09/30 10:36:31;;;;;;;1.02;0.93;;;14.60;94.30;;;;;;5094185;28;20016;-75
2021/09/30 10:39:23;;;;;;;1.88;1.50;;;14.60;94.20;;;;;;5094131;28;20123;-75
2021/09/30 10:41:54;;;;;;;2.42;1.10;;;14.70;94.30;;;;;;5094278;28;20074;-73
2021/09/30 10:44:26;;;;;;;1.17;0.80;;;14.70;94.30;;;;;;5093310;28;20120;-75
2021/09/30 10:46:55;;;;;;;1.08;1.00;;;14.80;94.30;;;;;;5094033;28;20031;-74
2021/09/30 10:49:26;;;;;;;2.00;0.65;;;14.90;94.30;;;;;;5093985;28;20066;-74
2021/09/30 10:52:15;;;;;;;1.17;1.00;;;14.90;94.20;;;;;;5093843;28;20024;-74
2021/09/30 10:54:42;;;;;;;1.15;1.05;;;14.90;94.20;;;;;;5093613;28;20449;-75
2021/09/30 10:57:41;;;;;;;1.73;1.30;;;14.80;94.20;;;;;;5093688;28;20434;-74
2021/09/30 11:00:16;;;;;;;0.50;0.50;;;14.70;94.20;;;;;;5093274;28;20089;-75
2021/09/30 11:03:05;;;;;;;0.98;0.90;;;14.60;94.30;;;;;;5075591;28;20105;-76
2021/09/30 11:05:42;;;;;;;1.42;0.65;;;14.70;94.40;;;;;;5093679;28;20023;-75
2021/09/30 11:08:29;;;;;;;2.30;1.40;;;14.90;94.40;;;;;;5075599;28;20456;-74
2021/09/30 11:11:04;;;;;;;1.35;0.85;;;15.00;94.00;;;;;;5093349;28;20051;-75
2021/09/30 11:13:35;;;;;;;1.13;0.70;;;15.10;94.10;;;;;;5074845;28;20049;-75
2021/09/30 11:16:34;;;;;;;2.03;0.95;;;15.20;94.00;;;;;;5093378;28;20364;-75
2021/09/30 11:19:01;;;;;;;0.82;0.82;;;15.30;93.90;;;;;;5060348;28;20043;-76
2021/09/30 11:21:30;;;;;;;1.30;0.93;;;15.30;94.00;;;;;;5093470;28;20020;-75
2021/09/30 11:24:00;;;;;;;1.00;0.85;;;15.40;93.90;;;;;;5093327;28;20085;-73
2021/09/30 11:26:28;;;;;;;0.60;0.60;;;15.40;93.90;;;;;;5093479;28;20048;-76
2021/09/30 11:28:55;;;;;;;1.88;0.85;;;15.40;93.90;;;;;;5074642;28;20074;-74
2021/09/30 11:31:27;;;;;;;1.83;0.95;;;15.40;93.80;;;;;;5093405;28;20464;-75
2021/09/30 11:33:55;;;;;;;1.40;1.20;;;15.40;93.60;;;;;;5093219;28;20477;-75
2021/09/30 11:36:31;;;;;;;1.33;1.00;;;15.30;93.60;;;;;;5093157;28;20059;-73
2021/09/30 11:39:00;;;;;;;1.05;0.70;;;15.30;93.80;;;;;;5093592;28;20020;-75
2021/09/30 11:41:33;;;;;;;0.57;0.57;;;15.30;93.70;;;;;;5092855;28;20065;-74
2021/09/30 11:44:00;;;;;;;0.60;0.60;;;15.30;93.80;;;;;;5093510;28;20036;-75
2021/09/30 11:46:32;;;;;;;1.27;0.75;;;15.20;93.80;;;;;;5093199;28;20019;-75
2021/09/30 11:49:13;;;;;;;0.75;0.65;;;15.20;93.80;;;;;;5093155;28;20388;-74
2021/09/30 11:51:50;;;;;;;1.23;0.70;;;15.30;93.90;;;;;;5093143;28;20100;-75
2021/09/30 11:54:23;;;;;;;0.77;0.77;;;15.30;93.90;;;;;;5093215;28;20024;-75
2021/09/30 11:56:54;;;;;;;0.68;0.60;;;15.50;93.80;;;;;;5074609;28;20036;-73
2021/09/30 11:59:43;;;;;;;0.88;0.60;;;15.40;93.50;;;;;;5092773;28;20103;-74
2021/09/30 12:02:08;;;;;;;0.52;0.52;;;15.40;93.70;;;;;;5080510;28;20101;-72
2021/09/30 12:04:38;;;;;;;0.55;0.55;;;15.40;93.80;;;;;;5074870;28;20447;-75
2021/09/30 12:07:03;;;;;;;1.65;0.77;;;15.30;93.80;;;;;;5092963;28;20012;-74
2021/09/30 12:09:33;;;;;;;2.15;0.68;;;15.40;93.70;;;;;;5074724;28;20476;-74
2021/09/30 12:12:02;;;;;;;2.05;0.70;;;15.40;94.00;;;;;;5092189;28;20055;-74
2021/09/30 12:14:43;;;;;;;;;;;15.40;93.60;;;;;;5075552;28;20358;-74
2021/09/30 12:17:15;;;;;;;0.32;0.32;;;15.40;94.00;;;;;;5074863;28;19908;-74
2021/09/30 12:19:43;;;;;;;0.47;0.47;;;15.40;93.70;;;;;;5074696;28;20387;-74
2021/09/30 12:22:14;;;;;;;0.50;0.50;;;15.50;93.60;;;;;;5093034;28;20062;-74
2021/09/30 12:24:42;;;;;;;1.05;0.55;;;15.60;93.60;;;;;;5093016;28;20052;-73
2021/09/30 12:27:08;;;;;;;0.95;0.47;;;15.60;93.50;;;;;;5092442;28;20066;-72
2021/09/30 12:29:41;;;;;;;0.63;0.30;;;15.70;93.60;;;;;;5095948;28;20025;-72
2021/09/30 12:32:10;;;;;;;1.75;1.10;;;15.80;93.40;;;;;;5096609;28;20036;-72
2021/09/30 12:34:35;;;;;;;1.55;0.20;;;15.70;93.30;;;;;;5078112;28;20476;-73
2021/09/30 12:37:01;;;;;;;0.50;0.50;;;15.70;93.30;;;;;;5096535;28;20050;-73
2021/09/30 12:39:29;;;;;;;0.25;0.25;;;15.60;93.30;;;;;;5096003;28;20027;-73
2021/09/30 12:42:09;;;;;;;1.08;0.50;;;15.60;93.30;;;;;;5096374;28;20043;-74
2021/09/30 12:44:35;;;;;;;3.58;1.23;;;15.50;93.30;;;;;;5096325;28;20460;-74
2021/09/30 12:47:00;;;;;;;0.80;0.52;;;15.50;93.40;;;;;;5096327;28;20031;-73
2021/09/30 12:49:26;;;;;;;0.98;0.35;;;15.60;93.30;;;;;;5096075;28;20020;-73
2021/09/30 12:51:51;;;;;;;1.05;1.00;;;15.60;93.30;;;;;;5096253;28;20032;-73
2021/09/30 12:54:27;;;;;;;1.52;0.63;;;15.70;93.30;;;;;;5095703;28;20099;-72
2021/09/30 12:56:53;;;;;;;0.55;0.30;;;15.70;93.20;;;;;;5095977;28;20499;-73
2021/09/30 12:59:20;;;;;;;0.93;0.45;;;15.70;93.30;;;;;;5096030;28;20017;-73
2021/09/30 13:01:45;;;;;;;0.63;0.63;;;15.80;93.30;;;;;;5096129;28;20524;-72
2021/09/30 13:04:21;;;;;;;0.68;0.47;;;15.80;93.30;;;;;;5077731;28;20068;-73
2021/09/30 13:06:59;;;;;;;0.52;0.52;;;15.80;93.20;;;;;;5096054;28;20103;-72
2021/09/30 13:09:37;;;;;;;0.30;0.30;;;15.90;93.20;;;;;;5095826;28;20073;-74
2021/09/30 13:12:14;;;;;;;0.40;0.40;;;15.90;93.20;;;;;;5095686;28;20048;-73
2021/09/30 13:14:54;;;;;;;0.40;0.40;;;15.90;93.20;;;;;;5095822;28;20484;-73
2021/09/30 13:17:23;;;;;;;;;;;15.80;93.10;;;;;;5096176;28;20020;-72
2021/09/30 13:19:52;;;;;;;0.38;0.30;;;15.60;93.40;;;;;;5095671;28;19981;-73
2021/09/30 13:22:22;;;;;;;0.63;0.30;;;15.40;93.40;;;;;;5095353;28;20150;-73
2021/09/30 13:24:50;;;;;;;0.30;0.20;;;15.40;93.40;;;;;;5095137;28;20115;-73
2021/09/30 13:27:18;;;;;;;5.70;0.98;;;15.30;93.40;;;;;;5095360;28;20457;-73
2021/09/30 13:29:45;;;;;;;0.50;0.50;;;15.30;93.40;;;;;;5095526;28;20415;-74
2021/09/30 13:32:12;;;;;;;1.27;0.70;;;15.40;93.40;;;;;;5095508;28;20460;-73
2021/09/30 13:34:38;;;;;;;1.75;0.70;;;15.40;93.30;;;;;;5095173;28;20024;-73
2021/09/30 13:37:04;;;;;;;0.55;0.35;;;15.40;93.30;;;;;;5077349;28;20457;-73
2021/09/30 13:39:29;;;;;;;0.82;0.38;;;15.40;93.30;;;;;;5094005;28;20016;-74
2021/09/30 13:41:55;;;;;;;0.60;0.60;;;15.40;93.40;;;;;;5095207;28;20027;-74
2021/09/30 13:44:21;;;;;;;0.60;0.60;;;15.50;93.40;;;;;;5095128;28;20042;-74
2021/09/30 13:46:47;;;;;;;0.50;0.50;;;15.40;93.10;;;;;;5095223;28;20016;-74
2021/09/30 13:49:13;;;;;;;0.50;0.50;;;15.40;93.20;;;;;;5095027;28;20059;-74
2021/09/30 13:51:39;;;;;;;0.60;0.60;;;15.30;93.30;;;;;;5095133;28;20051;-73
2021/09/30 13:54:05;;;;;;;0.88;0.43;;;15.30;93.30;;;;;;5076381;28;20048;-74
2021/09/30 13:56:31;;;;;;;1.65;0.70;;;15.30;93.40;;;;;;5094876;28;20028;-74
2021/09/30 13:58:57;;;;;;;0.70;0.40;;;15.30;93.40;;;;;;5094999;28;20020;-74
2021/09/30 14:01:23;;;;;;;0.60;0.60;;;15.20;93.40;;;;;;5094727;28;20028;-74
2021/09/30 14:03:48;;;;;;;3.08;1.10;;;15.20;93.40;;;;;;5094961;28;20024;-74
2021/09/30 14:06:16;;;;;;;0.77;0.70;;;15.10;93.30;;;;;;5076552;28;20465;-72
2021/09/30 14:08:43;;;;;;;0.43;0.43;;;15.00;93.40;;;;;;5094554;28;20027;-73
2021/09/30 14:11:10;;;;;;;0.68;0.52;;;15.00;93.40;;;;;;5094361;28;20044;-74
2021/09/30 14:13:37;;;;;;;1.38;0.55;;;14.90;93.50;;;;;;5094813;28;20024;-74
2021/09/30 14:16:03;;;;;;;0.95;0.68;;;14.90;93.50;;;;;;5094390;28;20020;-73
2021/09/30 14:18:29;;;;;;;0.98;0.80;;;14.90;93.50;;;;;;5094545;28;20020;-74
2021/09/30 14:20:55;;;;;;;1.02;0.93;;;14.80;93.50;;;;;;5094098;28;20477;-73
2021/09/30 14:23:25;;;;;;;0.75;0.65;;;14.80;93.50;;;;;;5094344;28;20044;-74
2021/09/30 14:25:51;;;;;;;0.73;0.60;;;14.90;93.50;;;;;;5095014;28;20093;-74
2021/09/30 14:28:16;;;;;;;0.80;0.80;;;14.90;93.50;;;;;;5094532;28;20369;-73
2021/09/30 14:30:42;;;;;;;1.92;0.63;;;14.90;93.50;;;;;;5094270;28;20075;-74
2021/09/30 14:33:07;;;;;;;1.38;0.75;;;15.00;93.40;;;;;;5094286;28;20032;-73
2021/09/30 14:35:33;;;;;;;0.68;0.60;;;14.90;93.30;;;;;;5075624;28;20028;-75
2021/09/30 14:37:59;;;;;;;1.35;0.57;;;14.90;93.30;;;;;;5094144;28;20063;-73
2021/09/30 14:40:25;;;;;;;0.63;0.45;;;14.90;93.40;;;;;;5094108;28;20065;-72
2021/09/30 14:42:50;;;;;;;0.65;0.60;;;15.00;93.40;;;;;;5094025;28;20103;-73
2021/09/30 14:45:16;;;;;;;0.90;0.65;;;15.00;93.30;;;;;;5094113;28;20016;-73
2021/09/30 14:47:43;;;;;;;1.25;0.52;;;15.10;93.40;;;;;;5094093;28;20020;-74
2021/09/30 14:50:09;;;;;;;4.75;0.90;;;15.10;93.40;;;;;;5093612;28;20111;-74
2021/09/30 14:52:34;;;;;;;0.55;0.55;;;15.10;93.30;;;;;;5093839;28;20098;-74
2021/09/30 14:55:00;;;;;;;2.70;0.73;;;15.20;93.30;;;;;;5093937;28;20024;-73
2021/09/30 14:57:25;;;;;;;0.47;0.43;;;15.20;93.30;;;;;;5093789;28;20457;-74
2021/09/30 14:59:51;;;;;;;1.35;1.25;;;15.20;93.30;;;;;;5093722;28;20024;-74
2021/09/30 15:02:16;;;;;;;0.70;0.70;;;15.20;93.30;;;;;;5093690;28;20091;-75
2021/09/30 15:04:42;;;;;;;1.35;0.68;;;15.20;93.30;;;;;;5075187;28;20031;-75
2021/09/30 15:07:07;;;;;;;1.13;0.80;;;15.30;93.30;;;;;;5093787;28;20023;-75
2021/09/30 15:09:33;;;;;;;0.77;0.68;;;15.30;93.20;;;;;;5093575;28;20380;-74
2021/09/30 15:11:59;;;;;;;1.35;0.93;;;15.30;93.20;;;;;;5093430;28;20389;-73
2021/09/30 15:14:26;;;;;;;0.70;0.60;;;15.30;93.30;;;;;;5093641;28;20028;-73
2021/09/30 15:16:59;;;;;;;0.68;0.60;;;15.30;93.30;;;;;;5075422;28;20043;-73
2021/09/30 15:20:13;;;;;;;2.47;1.13;;;15.20;93.30;;;;;;5093059;28;20031;-73
2021/09/30 15:22:13;;;;;;;0.88;0.70;;;15.20;93.30;;;;;;5090049;28;20108;-74
2021/09/30 15:24:39;;;;;;;0.55;0.55;;;15.10;93.30;;;;;;5093339;28;20536;-73
2021/09/30 15:27:05;;;;;;;0.63;0.63;;;15.10;93.30;;;;;;5093544;28;20016;-74
2021/09/30 15:29:30;;;;;;;0.70;0.70;;;15.00;93.30;;;;;;5093456;28;20026;-74
2021/09/30 15:31:56;;;;;;;1.20;0.60;;;15.00;93.40;;;;;;5093230;28;20032;-72
2021/09/30 15:34:22;;;;;;;0.80;0.77;;;14.90;93.40;;;;;;5092629;28;20048;-72
2021/09/30 15:36:47;;;;;;;1.08;0.50;;;15.00;93.40;;;;;;5093275;28;20032;-73